Time;durP1;ratioP1;P1;durP2;ratioP2;P2;SDS_P1;SDS_P2;PMS_P1;PMS_P2;Temp;Humidity;BMP_temperature;BMP_pressure;BME280_temperature;BME280_humidity;BME280_pressure;Samples;Min_cycle;Max_cycle;Signal;HPM_P1;HPM_P2
2023/04/29 00:00:05;;;;;;;1.50;1.17;;;;;;;;;;5057483;28;20044;-87
2023/04/29 00:02:51;;;;;;;1.10;0.80;;;;;;;;;;5068211;28;20035;-88
2023/04/29 00:05:17;;;;;;;1.60;1.08;;;;;;;;;;5067442;28;20128;-88
2023/04/29 00:07:56;;;;;;;2.25;1.15;;;;;;;;;;5059184;28;20129;-87
2023/04/29 00:10:38;;;;;;;1.65;1.38;;;;;;;;;;5058720;28;20031;-88
2023/04/29 00:13:07;;;;;;;1.70;1.58;;;;;;;;;;5055953;28;20035;-91
2023/04/29 00:15:33;;;;;;;2.25;1.25;;;;;;;;;;5055409;28;20473;-86
2023/04/29 00:18:04;;;;;;;2.42;1.48;;;;;;;;;;5058813;28;20025;-86
2023/04/29 00:20:33;;;;;;;1.05;0.85;;;;;;;;;;5064079;28;20385;-85
2023/04/29 00:23:05;;;;;;;1.17;0.77;;;;;;;;;;5061216;28;20086;-85
2023/04/29 00:25:31;;;;;;;2.25;1.27;;;;;;;;;;5059896;28;20053;-87
2023/04/29 00:28:00;;;;;;;0.80;0.80;;;;;;;;;;5056291;28;20028;-86
2023/04/29 00:30:31;;;;;;;1.35;0.93;;;;;;;;;;5063190;28;20112;-89
2023/04/29 00:33:02;;;;;;;0.70;0.70;;;;;;;;;;5057297;28;20025;-88
2023/04/29 00:35:37;;;;;;;3.75;1.25;;;;;;;;;;5054383;28;20025;-88
2023/04/29 00:38:34;;;;;;;0.80;0.80;;;;;;;;;;5060909;28;20032;-88
2023/04/29 00:41:01;;;;;;;9.90;1.75;;;;;;;;;;5062305;28;20071;-89
2023/04/29 00:43:32;;;;;;;2.47;1.35;;;;;;;;;;5059803;28;20449;-86
2023/04/29 00:46:01;;;;;;;3.22;1.25;;;;;;;;;;5057024;28;20491;-87
2023/04/29 00:48:31;;;;;;;1.27;0.85;;;;;;;;;;5060170;28;20048;-86
2023/04/29 00:51:04;;;;;;;0.80;0.80;;;;;;;;;;5056178;28;20033;-87
2023/04/29 00:53:35;;;;;;;1.58;1.42;;;;;;;;;;5061731;28;20088;-86
2023/04/29 00:56:01;;;;;;;2.35;1.55;;;;;;;;;;5062176;28;20025;-87
2023/04/29 00:58:34;;;;;;;0.93;0.93;;;;;;;;;;5068232;28;20502;-87
2023/04/29 01:01:03;;;;;;;2.25;1.67;;;;;;;;;;5056897;28;20055;-86
2023/04/29 01:03:32;;;;;;;0.68;0.65;;;;;;;;;;5062187;28;20071;-88
2023/04/29 01:06:16;;;;;;;1.45;1.00;;;;;;;;;;5055632;28;20484;-87
2023/04/29 01:09:05;;;;;;;0.70;0.70;;;;;;;;;;5059666;28;20025;-87
2023/04/29 01:11:38;;;;;;;2.30;1.23;;;;;;;;;;5056051;28;20497;-86
2023/04/29 01:14:10;;;;;;;0.70;0.70;;;;;;;;;;5053788;28;20028;-86
2023/04/29 01:16:52;;;;;;;3.22;1.67;;;;;;;;;;5056135;28;20028;-87
2023/04/29 01:19:24;;;;;;;1.38;0.60;;;;;;;;;;5062155;28;20496;-86
2023/04/29 01:21:50;;;;;;;0.70;0.70;;;;;;;;;;5052345;28;20108;-89
2023/04/29 01:24:16;;;;;;;0.73;0.52;;;;;;;;;;5066673;28;20064;-87
2023/04/29 01:26:55;;;;;;;1.65;0.90;;;;;;;;;;5068851;28;20033;-87
2023/04/29 01:29:42;;;;;;;0.73;0.73;;;;;;;;;;5060162;28;20037;-87
2023/04/29 01:32:25;;;;;;;1.00;0.98;;;;;;;;;;5056890;28;20500;-88
2023/04/29 01:35:09;;;;;;;1.75;1.05;;;;;;;;;;5058991;28;20492;-88
2023/04/29 01:37:56;;;;;;;2.25;1.08;;;;;;;;;;5063963;28;20120;-88
2023/04/29 01:40:48;;;;;;;1.20;1.10;;;;;;;;;;5054291;28;20093;-89
2023/04/29 01:43:18;;;;;;;2.63;1.38;;;;;;;;;;5049223;28;20380;-84
2023/04/29 01:45:46;;;;;;;1.25;1.15;;;;;;;;;;5057986;28;20025;-86
2023/04/29 01:48:15;;;;;;;3.00;1.52;;;;;;;;;;5055086;28;20037;-86
2023/04/29 01:50:46;;;;;;;1.80;1.20;;;;;;;;;;5059739;28;20480;-87
2023/04/29 01:53:17;;;;;;;0.70;0.70;;;;;;;;;;5064472;28;20385;-86
2023/04/29 01:55:43;;;;;;;1.50;1.17;;;;;;;;;;5061783;28;20377;-88
2023/04/29 01:58:10;;;;;;;1.10;0.90;;;;;;;;;;5050997;28;20120;-87
2023/04/29 02:00:41;;;;;;;0.50;0.50;;;;;;;;;;5062372;28;20130;-88
2023/04/29 02:03:12;;;;;;;0.82;0.80;;;;;;;;;;5053405;28;20028;-87
2023/04/29 02:05:40;;;;;;;1.52;0.77;;;;;;;;;;5064990;28;20086;-88
2023/04/29 02:08:12;;;;;;;2.45;1.05;;;;;;;;;;5057338;28;20028;-88
2023/04/29 02:10:46;;;;;;;0.70;0.60;;;;;;;;;;5052429;28;20049;-87
2023/04/29 02:13:17;;;;;;;4.50;1.05;;;;;;;;;;5062438;28;20016;-86
2023/04/29 02:15:45;;;;;;;1.08;0.98;;;;;;;;;;5067477;28;20496;-87
2023/04/29 02:18:11;;;;;;;1.08;0.80;;;;;;;;;;5055418;28;20378;-88
2023/04/29 02:20:39;;;;;;;1.85;1.00;;;;;;;;;;5068043;28;20025;-88
2023/04/29 02:23:05;;;;;;;1.05;0.80;;;;;;;;;;5057143;28;20037;-88
2023/04/29 02:25:30;;;;;;;1.45;1.02;;;;;;;;;;5060702;28;20485;-89
2023/04/29 02:27:56;;;;;;;1.25;1.10;;;;;;;;;;5052353;28;20025;-90
2023/04/29 02:31:09;;;;;;;0.47;0.47;;;;;;;;;;5068251;28;20033;-88
2023/04/29 02:33:35;;;;;;;1.70;1.10;;;;;;;;;;5064596;28;20430;-88
2023/04/29 02:36:04;;;;;;;1.08;0.93;;;;;;;;;;5066351;28;20103;-90
2023/04/29 02:38:32;;;;;;;1.15;1.02;;;;;;;;;;5070400;28;20810;-91
2023/04/29 02:41:03;;;;;;;2.33;0.93;;;;;;;;;;5070617;28;20510;-90
2023/04/29 02:43:32;;;;;;;1.30;1.20;;;;;;;;;;5058029;28;20024;-89
2023/04/29 02:46:06;;;;;;;2.08;0.82;;;;;;;;;;5066513;28;20123;-88
2023/04/29 02:48:50;;;;;;;;;;;;;;;;;;;;;
2023/04/29 02:51:22;;;;;;;3.13;1.92;;;;;;;;;;5058340;28;20024;-90
2023/04/29 02:54:11;;;;;;;;;;;;;;;;;;;;;
2023/04/29 02:56:39;;;;;;;2.63;1.17;;;;;;;;;;5062610;28;20524;-90
2023/04/29 02:59:17;;;;;;;1.20;0.95;;;;;;;;;;5063486;28;20141;-88
2023/04/29 03:01:51;;;;;;;1.65;1.17;;;;;;;;;;5060001;28;20021;-86
2023/04/29 03:04:23;;;;;;;2.42;1.38;;;;;;;;;;5068114;28;20114;-88
2023/04/29 03:06:54;;;;;;;1.42;0.88;;;;;;;;;;5063212;28;20031;-87
2023/04/29 03:09:37;;;;;;;;;;;;;;;;;;;;;
2023/04/29 03:12:18;;;;;;;4.38;1.25;;;;;;;;;;5066931;28;20028;-87
2023/04/29 03:14:43;;;;;;;1.27;1.05;;;;;;;;;;5063760;28;20503;-89
2023/04/29 03:17:31;;;;;;;3.50;1.95;;;;;;;;;;5070552;28;20060;-88
2023/04/29 03:20:06;;;;;;;0.30;0.30;;;;;;;;;;5064541;28;20031;-88
2023/04/29 03:22:49;;;;;;;1.05;0.95;;;;;;;;;;5065276;28;20032;-88
2023/04/29 03:25:15;;;;;;;0.77;0.50;;;;;;;;;;5055425;28;20028;-87
2023/04/29 03:28:02;;;;;;;2.03;0.88;;;;;;;;;;5053437;28;20024;-90
2023/04/29 03:30:38;;;;;;;4.10;1.23;;;;;;;;;;5059376;28;20044;-87
2023/04/29 03:33:15;;;;;;;0.70;0.50;;;;;;;;;;5063703;28;20072;-88
2023/04/29 03:36:16;;;;;;;0.77;0.60;;;;;;;;;;5059848;28;20055;-90
2023/04/29 03:38:59;;;;;;;0.68;0.68;;;;;;;;;;5058337;28;20135;-89
2023/04/29 03:41:30;;;;;;;1.60;0.75;;;;;;;;;;5057783;28;20033;-88
2023/04/29 03:44:22;;;;;;;1.75;0.80;;;;;;;;;;5059301;28;20033;-87
2023/04/29 03:46:48;;;;;;;3.47;1.50;;;;;;;;;;5056278;28;20036;-87
2023/04/29 03:49:23;;;;;;;0.80;0.80;;;;;;;;;;5056665;28;20075;-86
2023/04/29 03:52:00;;;;;;;1.48;0.88;;;;;;;;;;5058228;28;20040;-88
2023/04/29 03:54:29;;;;;;;1.33;1.02;;;;;;;;;;5059943;28;20029;-89
2023/04/29 03:56:55;;;;;;;0.73;0.73;;;;;;;;;;5049022;28;20081;-87
2023/04/29 03:59:21;;;;;;;0.50;0.50;;;;;;;;;;5065250;28;20053;-85
2023/04/29 04:02:18;;;;;;;2.25;0.95;;;;;;;;;;5062276;28;20037;-86
2023/04/29 04:05:02;;;;;;;3.38;0.75;;;;;;;;;;5048036;28;20534;-86
2023/04/29 04:07:27;;;;;;;1.33;0.75;;;;;;;;;;5060678;28;20028;-86
2023/04/29 04:09:53;;;;;;;1.80;0.95;;;;;;;;;;5052874;28;20040;-85
2023/04/29 04:12:18;;;;;;;1.10;1.00;;;;;;;;;;5060415;28;20028;-86
2023/04/29 04:14:43;;;;;;;1.08;0.98;;;;;;;;;;5058642;28;20048;-85
2023/04/29 04:17:09;;;;;;;0.93;0.88;;;;;;;;;;5061218;28;20112;-86
2023/04/29 04:19:34;;;;;;;1.58;1.10;;;;;;;;;;5061558;28;20047;-85
2023/04/29 04:22:02;;;;;;;1.38;1.02;;;;;;;;;;5065348;28;20025;-85
2023/04/29 04:24:28;;;;;;;1.10;1.00;;;;;;;;;;5058060;28;20491;-86
2023/04/29 04:26:53;;;;;;;1.17;1.10;;;;;;;;;;5063981;28;20017;-86
2023/04/29 04:29:19;;;;;;;3.25;2.13;;;;;;;;;;5061469;28;20017;-85
2023/04/29 04:31:45;;;;;;;3.70;1.70;;;;;;;;;;5063463;28;20078;-88
2023/04/29 04:34:10;;;;;;;4.72;1.67;;;;;;;;;;5057031;28;20411;-88
2023/04/29 04:36:36;;;;;;;4.20;2.10;;;;;;;;;;5058775;28;20095;-85
2023/04/29 04:39:01;;;;;;;5.38;2.35;;;;;;;;;;5058298;28;20033;-86
2023/04/29 04:41:30;;;;;;;7.00;2.33;;;;;;;;;;5053718;28;20020;-87
2023/04/29 04:43:55;;;;;;;3.80;1.90;;;;;;;;;;5060311;28;20025;-88
2023/04/29 04:46:21;;;;;;;3.05;2.08;;;;;;;;;;5049219;28;20028;-86
2023/04/29 04:48:46;;;;;;;2.33;1.63;;;;;;;;;;5053009;28;20116;-86
2023/04/29 04:51:12;;;;;;;2.95;2.13;;;;;;;;;;5057707;28;20031;-85
2023/04/29 04:53:39;;;;;;;3.72;1.20;;;;;;;;;;5057709;28;20029;-87
2023/04/29 04:56:06;;;;;;;4.18;3.08;;;;;;;;;;5057775;28;20024;-87
2023/04/29 04:58:32;;;;;;;3.05;2.17;;;;;;;;;;5061126;28;20419;-86
2023/04/29 05:00:58;;;;;;;3.63;2.72;;;;;;;;;;5064467;28;20041;-86
2023/04/29 05:03:25;;;;;;;4.78;2.75;;;;;;;;;;5061966;28;20053;-85
2023/04/29 05:05:58;;;;;;;3.53;2.17;;;;;;;;;;5056041;28;20036;-84
2023/04/29 05:08:26;;;;;;;4.30;1.98;;;;;;;;;;5063239;28;20028;-84
2023/04/29 05:11:15;;;;;;;2.65;1.88;;;;;;;;;;5053818;28;20057;-83
2023/04/29 05:13:40;;;;;;;9.35;2.60;;;;;;;;;;5054674;28;20029;-84
2023/04/29 05:16:05;;;;;;;3.00;2.30;;;;;;;;;;5058240;28;20047;-86
2023/04/29 05:18:31;;;;;;;3.22;2.38;;;;;;;;;;5050961;28;20025;-85
2023/04/29 05:20:56;;;;;;;6.45;2.50;;;;;;;;;;5053549;28;20056;-81
2023/04/29 05:23:22;;;;;;;4.30;2.63;;;;;;;;;;5054013;28;20061;-83
2023/04/29 05:25:48;;;;;;;3.72;2.70;;;;;;;;;;5054857;28;20036;-82
2023/04/29 05:28:13;;;;;;;4.57;3.20;;;;;;;;;;5062185;28;20037;-82
2023/04/29 05:30:40;;;;;;;3.38;2.00;;;;;;;;;;5057864;28;20029;-82
2023/04/29 05:33:05;;;;;;;4.15;2.50;;;;;;;;;;5062251;28;20377;-82
2023/04/29 05:35:31;;;;;;;4.43;1.90;;;;;;;;;;5056511;28;20108;-82
2023/04/29 05:37:56;;;;;;;3.38;1.90;;;;;;;;;;5062711;28;20021;-83
2023/04/29 05:40:22;;;;;;;2.15;1.55;;;;;;;;;;5057077;28;20016;-82
2023/04/29 05:42:48;;;;;;;14.02;2.47;;;;;;;;;;5066983;28;20021;-81
2023/04/29 05:45:13;;;;;;;5.07;3.10;;;;;;;;;;5067163;28;20028;-81
2023/04/29 05:47:39;;;;;;;3.63;2.53;;;;;;;;;;5068494;28;20040;-82
2023/04/29 05:50:07;;;;;;;5.65;3.28;;;;;;;;;;5056378;28;20464;-83
2023/04/29 05:52:32;;;;;;;5.80;2.78;;;;;;;;;;5065116;28;20028;-82
2023/04/29 05:54:58;;;;;;;5.50;3.30;;;;;;;;;;5062912;28;20388;-83
2023/04/29 05:57:23;;;;;;;3.80;1.80;;;;;;;;;;5057413;28;20029;-83
2023/04/29 05:59:49;;;;;;;4.50;2.83;;;;;;;;;;5057979;28;20138;-80
2023/04/29 06:02:14;;;;;;;7.45;3.55;;;;;;;;;;5066355;28;20024;-83
2023/04/29 06:04:40;;;;;;;4.78;3.35;;;;;;;;;;5054032;28;20439;-82
2023/04/29 06:07:07;;;;;;;4.07;2.85;;;;;;;;;;5058410;28;20435;-82
2023/04/29 06:09:34;;;;;;;4.38;2.83;;;;;;;;;;5054636;28;20028;-80
2023/04/29 06:12:00;;;;;;;4.47;2.97;;;;;;;;;;5057251;28;20024;-81
2023/04/29 06:14:25;;;;;;;7.35;3.10;;;;;;;;;;5063888;28;20116;-83
2023/04/29 06:16:52;;;;;;;5.40;3.13;;;;;;;;;;5064405;28;20407;-82
2023/04/29 06:19:18;;;;;;;5.00;3.03;;;;;;;;;;5061030;28;20055;-81
2023/04/29 06:21:43;;;;;;;6.05;3.28;;;;;;;;;;5060517;28;20020;-83
2023/04/29 06:24:09;;;;;;;6.32;2.58;;;;;;;;;;5059531;28;20398;-84
2023/04/29 06:26:34;;;;;;;6.35;3.67;;;;;;;;;;5046621;28;20079;-82
2023/04/29 06:29:00;;;;;;;12.07;3.67;;;;;;;;;;5064837;28;20024;-84
2023/04/29 06:31:26;;;;;;;5.43;2.67;;;;;;;;;;5061346;28;20036;-83
2023/04/29 06:33:51;;;;;;;4.78;2.88;;;;;;;;;;5059346;28;20028;-83
2023/04/29 06:36:17;;;;;;;3.22;2.38;;;;;;;;;;5063126;28;20028;-84
2023/04/29 06:38:42;;;;;;;3.88;2.03;;;;;;;;;;5065074;28;20028;-83
2023/04/29 06:41:09;;;;;;;5.75;2.50;;;;;;;;;;5057558;28;20029;-83
2023/04/29 06:43:34;;;;;;;5.85;2.28;;;;;;;;;;5061426;28;20392;-84
2023/04/29 06:46:00;;;;;;;3.55;2.35;;;;;;;;;;5063513;28;20024;-85
2023/04/29 06:48:26;;;;;;;4.05;2.97;;;;;;;;;;5062126;28;20457;-84
2023/04/29 06:50:58;;;;;;;3.10;2.13;;;;;;;;;;5060618;28;20052;-83
2023/04/29 06:53:27;;;;;;;6.00;2.22;;;;;;;;;;5057753;28;20481;-83
2023/04/29 06:55:53;;;;;;;2.17;1.85;;;;;;;;;;5055130;28;20029;-82
2023/04/29 06:58:18;;;;;;;2.08;1.83;;;;;;;;;;5065039;28;20108;-83
2023/04/29 07:00:46;;;;;;;5.50;2.47;;;;;;;;;;5061651;28;20037;-82
2023/04/29 07:03:12;;;;;;;3.47;2.30;;;;;;;;;;5055551;28;20025;-81
2023/04/29 07:05:47;;;;;;;7.07;2.33;;;;;;;;;;5064999;28;20095;-83
2023/04/29 07:08:12;;;;;;;3.00;1.73;;;;;;;;;;5063985;28;20361;-84
2023/04/29 07:10:38;;;;;;;1.65;1.50;;;;;;;;;;5065576;28;20082;-84
2023/04/29 07:13:04;;;;;;;3.58;2.10;;;;;;;;;;5053856;28;20025;-83
2023/04/29 07:15:33;;;;;;;3.50;2.10;;;;;;;;;;5063605;28;20420;-82
2023/04/29 07:17:59;;;;;;;1.67;1.30;;;;;;;;;;5059208;28;20154;-82
2023/04/29 07:20:26;;;;;;;2.28;1.50;;;;;;;;;;5054348;28;20112;-82
2023/04/29 07:22:51;;;;;;;4.40;1.92;;;;;;;;;;5064766;28;20017;-85
2023/04/29 07:25:17;;;;;;;2.58;1.35;;;;;;;;;;5060496;28;20032;-82
2023/04/29 07:27:43;;;;;;;7.72;2.13;;;;;;;;;;5064607;28;20376;-82
2023/04/29 07:30:11;;;;;;;3.13;1.40;;;;;;;;;;5056313;28;20162;-81
2023/04/29 07:32:36;;;;;;;2.47;1.92;;;;;;;;;;5049301;28;20036;-82
2023/04/29 07:35:02;;;;;;;2.35;1.42;;;;;;;;;;5057064;28;20028;-82
2023/04/29 07:37:28;;;;;;;2.30;1.50;;;;;;;;;;5057485;28;20495;-82
2023/04/29 07:39:53;;;;;;;2.33;1.55;;;;;;;;;;5063345;28;20098;-84
2023/04/29 07:42:19;;;;;;;1.92;1.42;;;;;;;;;;5054467;28;20230;-82
2023/04/29 07:44:44;;;;;;;2.47;1.90;;;;;;;;;;5055680;28;20107;-84
2023/04/29 07:47:13;;;;;;;3.65;2.40;;;;;;;;;;5057655;28;20024;-84
2023/04/29 07:49:38;;;;;;;4.50;2.42;;;;;;;;;;5057908;28;20025;-84
2023/04/29 07:52:04;;;;;;;2.03;1.67;;;;;;;;;;5053342;28;20496;-83
2023/04/29 07:54:30;;;;;;;1.17;1.08;;;;;;;;;;5057334;28;20037;-85
2023/04/29 07:57:03;;;;;;;6.53;2.65;;;;;;;;;;5059887;28;20436;-82
2023/04/29 07:59:29;;;;;;;2.58;1.70;;;;;;;;;;5057066;28;20049;-85
2023/04/29 08:01:55;;;;;;;3.85;2.53;;;;;;;;;;5051362;28;20025;-83
2023/04/29 08:04:20;;;;;;;2.80;1.85;;;;;;;;;;5065269;28;20086;-84
2023/04/29 08:06:46;;;;;;;6.60;2.42;;;;;;;;;;5055786;28;20088;-84
2023/04/29 08:09:11;;;;;;;11.40;1.90;;;;;;;;;;5053520;28;20025;-82
2023/04/29 08:11:38;;;;;;;10.32;2.20;;;;;;;;;;5058548;28;20021;-84
2023/04/29 08:14:05;;;;;;;2.03;1.52;;;;;;;;;;5053491;28;20100;-83
2023/04/29 08:16:30;;;;;;;4.00;2.10;;;;;;;;;;5059949;28;20025;-83
2023/04/29 08:18:56;;;;;;;4.60;2.28;;;;;;;;;;5063761;28;20017;-83
2023/04/29 08:21:22;;;;;;;2.83;1.73;;;;;;;;;;5058700;28;20025;-81
2023/04/29 08:23:47;;;;;;;3.78;2.33;;;;;;;;;;5058694;28;20417;-82
2023/04/29 08:26:13;;;;;;;6.80;2.33;;;;;;;;;;5063113;28;20025;-82
2023/04/29 08:28:38;;;;;;;3.10;2.17;;;;;;;;;;5049061;28;20072;-82
2023/04/29 08:31:06;;;;;;;3.47;2.50;;;;;;;;;;5055101;28;20025;-83
2023/04/29 08:33:35;;;;;;;4.15;1.95;;;;;;;;;;5067676;28;20820;-83
2023/04/29 08:36:02;;;;;;;3.00;1.75;;;;;;;;;;5052557;28;20036;-84
2023/04/29 08:38:30;;;;;;;2.45;1.70;;;;;;;;;;5050565;28;20021;-83
2023/04/29 08:40:56;;;;;;;3.33;2.08;;;;;;;;;;5055572;28;20029;-83
2023/04/29 08:43:23;;;;;;;3.53;1.98;;;;;;;;;;5065857;28;20499;-83
2023/04/29 08:45:49;;;;;;;2.03;1.67;;;;;;;;;;5054389;28;20044;-81
2023/04/29 08:48:18;;;;;;;5.85;1.98;;;;;;;;;;5054456;28;20427;-84
2023/04/29 08:50:44;;;;;;;2.22;1.40;;;;;;;;;;5058512;28;20566;-83
2023/04/29 08:53:11;;;;;;;2.78;1.92;;;;;;;;;;5059040;28;20069;-82
2023/04/29 08:55:44;;;;;;;3.10;1.77;;;;;;;;;;5054446;28;20032;-84
2023/04/29 08:58:11;;;;;;;1.73;1.45;;;;;;;;;;5055426;28;20032;-83
2023/04/29 09:00:36;;;;;;;5.97;2.13;;;;;;;;;;5054293;28;20040;-84
2023/04/29 09:03:53;;;;;;;3.60;1.73;;;;;;;;;;5048358;28;20393;-84
2023/04/29 09:06:20;;;;;;;1.83;1.27;;;;;;;;;;5032634;28;20513;-83
2023/04/29 09:08:46;;;;;;;2.05;1.40;;;;;;;;;;5058895;28;20465;-82
2023/04/29 09:11:12;;;;;;;10.00;1.88;;;;;;;;;;5054753;28;20033;-84
2023/04/29 09:13:37;;;;;;;4.30;1.77;;;;;;;;;;5054294;28;20083;-84
2023/04/29 09:16:04;;;;;;;2.00;1.55;;;;;;;;;;5056706;28;20476;-82
2023/04/29 09:18:50;;;;;;;1.92;1.30;;;;;;;;;;5050219;28;20032;-83
2023/04/29 09:21:21;;;;;;;1.50;1.33;;;;;;;;;;5054637;28;20461;-83
2023/04/29 09:23:49;;;;;;;3.60;1.60;;;;;;;;;;5064195;28;20033;-82
2023/04/29 09:26:15;;;;;;;4.32;1.55;;;;;;;;;;5063108;28;20028;-81
2023/04/29 09:28:43;;;;;;;1.52;1.35;;;;;;;;;;5049548;28;20380;-83
2023/04/29 09:31:10;;;;;;;2.33;1.30;;;;;;;;;;5055573;28;20067;-83
2023/04/29 09:33:54;;;;;;;3.28;1.88;;;;;;;;;;5052485;28;20036;-85
2023/04/29 09:36:39;;;;;;;2.28;1.60;;;;;;;;;;5055800;28;20025;-84
2023/04/29 09:39:12;;;;;;;2.70;1.50;;;;;;;;;;5060598;28;20074;-83
2023/04/29 09:41:57;;;;;;;2.00;1.48;;;;;;;;;;5049912;28;20028;-84
2023/04/29 09:44:32;;;;;;;4.90;1.60;;;;;;;;;;5063529;28;20032;-81
2023/04/29 09:47:02;;;;;;;2.58;1.80;;;;;;;;;;5052727;28;20037;-84
2023/04/29 09:49:34;;;;;;;3.63;1.88;;;;;;;;;;5052992;28;20034;-84
2023/04/29 09:52:01;;;;;;;5.63;1.85;;;;;;;;;;5054842;28;20056;-84
2023/04/29 09:54:32;;;;;;;2.47;1.65;;;;;;;;;;5055150;28;20105;-81
2023/04/29 09:57:04;;;;;;;3.08;1.90;;;;;;;;;;5052573;28;20079;-82
2023/04/29 09:59:33;;;;;;;2.08;1.58;;;;;;;;;;5055178;28;20075;-82
2023/04/29 10:01:59;;;;;;;2.85;1.85;;;;;;;;;;5056995;28;20024;-83
2023/04/29 10:04:26;;;;;;;3.50;2.05;;;;;;;;;;5058573;28;20469;-82
2023/04/29 10:06:53;;;;;;;2.47;1.90;;;;;;;;;;5056448;28;20488;-84
2023/04/29 10:09:20;;;;;;;2.47;1.52;;;;;;;;;;5060052;28;20056;-85
2023/04/29 10:11:51;;;;;;;2.05;1.55;;;;;;;;;;5056559;28;20119;-83
2023/04/29 10:14:21;;;;;;;3.15;2.08;;;;;;;;;;5062957;28;20060;-80
2023/04/29 10:16:58;;;;;;;2.67;2.10;;;;;;;;;;5061152;28;20021;-84
2023/04/29 10:19:45;;;;;;;2.25;1.73;;;;;;;;;;5058480;28;20438;-84
2023/04/29 10:22:15;;;;;;;3.13;2.00;;;;;;;;;;5062609;28;20017;-82
2023/04/29 10:24:42;;;;;;;4.45;2.75;;;;;;;;;;5060504;28;20036;-83
2023/04/29 10:27:11;;;;;;;2.95;1.85;;;;;;;;;;5052916;28;20033;-83
2023/04/29 10:29:38;;;;;;;3.85;2.42;;;;;;;;;;5057144;28;20074;-84
2023/04/29 10:32:06;;;;;;;6.75;2.60;;;;;;;;;;5063726;28;20052;-85
2023/04/29 10:34:33;;;;;;;5.00;2.67;;;;;;;;;;5064613;28;20055;-83
2023/04/29 10:36:59;;;;;;;7.13;2.80;;;;;;;;;;5054858;28;20044;-81
2023/04/29 10:40:04;;;;;;;5.35;2.45;;;;;;;;;;5059162;28;20361;-82
2023/04/29 10:42:45;;;;;;;6.70;2.25;;;;;;;;;;5051907;28;20037;-83
2023/04/29 10:45:18;;;;;;;4.53;2.55;;;;;;;;;;5054769;28;20051;-81
2023/04/29 10:48:13;;;;;;;4.88;2.53;;;;;;;;;;5060164;28;20480;-84
2023/04/29 10:50:48;;;;;;;3.72;2.33;;;;;;;;;;5056680;28;20123;-82
2023/04/29 10:53:21;;;;;;;3.97;2.20;;;;;;;;;;5049228;28;20420;-81
2023/04/29 10:55:57;;;;;;;3.13;1.98;;;;;;;;;;5056764;28;20028;-80
2023/04/29 10:58:42;;;;;;;3.85;2.40;;;;;;;;;;5058313;28;20510;-81
2023/04/29 11:01:13;;;;;;;3.58;2.20;;;;;;;;;;5055223;28;20112;-80
2023/04/29 11:03:59;;;;;;;4.43;2.47;;;;;;;;;;5052052;28;20021;-82
2023/04/29 11:06:34;;;;;;;3.17;1.50;;;;;;;;;;5054804;28;20082;-83
2023/04/29 11:09:08;;;;;;;4.22;2.38;;;;;;;;;;5054797;28;20507;-81
2023/04/29 11:12:08;;;;;;;3.78;1.42;;;;;;;;;;5064285;28;20082;-82
2023/04/29 11:14:48;;;;;;;2.72;1.90;;;;;;;;;;5051300;28;20128;-82
2023/04/29 11:17:14;;;;;;;;;;;;;;;;;;5061870;28;20036;-82
2023/04/29 11:19:44;;;;;;;3.63;1.83;;;;;;;;;;5056836;28;19952;-83
2023/04/29 11:22:22;;;;;;;6.93;1.88;;;;;;;;;;5066255;28;20035;-82
2023/04/29 11:24:54;;;;;;;1.88;1.40;;;;;;;;;;5058175;28;20066;-83
2023/04/29 11:27:24;;;;;;;1.92;1.20;;;;;;;;;;5057285;28;20036;-83
2023/04/29 11:29:51;;;;;;;1.90;1.70;;;;;;;;;;5058845;28;20503;-81
2023/04/29 11:32:20;;;;;;;3.05;1.20;;;;;;;;;;5056406;28;20212;-86
2023/04/29 11:34:45;;;;;;;3.63;1.60;;;;;;;;;;5063426;28;20079;-86
2023/04/29 11:37:11;;;;;;;2.35;1.13;;;;;;;;;;5056835;28;20415;-85
2023/04/29 11:39:36;;;;;;;2.10;1.40;;;;;;;;;;5057303;28;20104;-85
2023/04/29 11:42:05;;;;;;;2.50;1.60;;;;;;;;;;5052263;28;20509;-83
2023/04/29 11:44:36;;;;;;;1.60;1.08;;;;;;;;;;5057099;28;20477;-81
2023/04/29 11:47:05;;;;;;;3.08;1.20;;;;;;;;;;5055725;28;20116;-83
2023/04/29 11:49:34;;;;;;;1.30;0.90;;;;;;;;;;5048937;28;20033;-81
2023/04/29 11:52:00;;;;;;;2.05;0.95;;;;;;;;;;5060747;28;20033;-85
2023/04/29 11:54:26;;;;;;;0.98;0.70;;;;;;;;;;5064217;28;20032;-82
2023/04/29 11:56:57;;;;;;;2.20;0.95;;;;;;;;;;5056552;28;20094;-84
2023/04/29 11:59:23;;;;;;;2.50;1.05;;;;;;;;;;5056870;28;20047;-86
2023/04/29 12:01:49;;;;;;;2.20;1.15;;;;;;;;;;5057592;28;20112;-86
2023/04/29 12:04:15;;;;;;;2.10;0.90;;;;;;;;;;5059525;28;20024;-81
2023/04/29 12:06:41;;;;;;;1.33;0.77;;;;;;;;;;5058610;28;20450;-82
2023/04/29 12:09:07;;;;;;;1.15;1.00;;;;;;;;;;5060527;28;20096;-84
2023/04/29 12:11:34;;;;;;;5.35;1.75;;;;;;;;;;5060018;28;20168;-84
2023/04/29 12:14:01;;;;;;;1.40;1.25;;;;;;;;;;5057100;28;20021;-84
2023/04/29 12:16:28;;;;;;;1.98;1.13;;;;;;;;;;5056677;28;20024;-84
2023/04/29 12:18:54;;;;;;;1.25;0.85;;;;;;;;;;5054629;28;20029;-84
2023/04/29 12:21:23;;;;;;;2.15;1.50;;;;;;;;;;5066342;28;20031;-83
2023/04/29 12:23:50;;;;;;;3.00;1.55;;;;;;;;;;5062520;28;20506;-84
2023/04/29 12:26:16;;;;;;;2.15;1.10;;;;;;;;;;5063623;28;20496;-82
2023/04/29 12:28:42;;;;;;;1.85;1.05;;;;;;;;;;5052192;28;20120;-84
2023/04/29 12:31:10;;;;;;;2.58;1.13;;;;;;;;;;5057103;28;20111;-84
2023/04/29 12:33:36;;;;;;;2.75;1.33;;;;;;;;;;5063366;28;20115;-85
2023/04/29 12:36:01;;;;;;;4.10;1.55;;;;;;;;;;5056131;28;20037;-85
2023/04/29 12:38:30;;;;;;;2.40;1.38;;;;;;;;;;5059235;28;20425;-84
2023/04/29 12:41:03;;;;;;;1.85;1.08;;;;;;;;;;5051600;28;20480;-86
2023/04/29 12:43:32;;;;;;;1.33;0.93;;;;;;;;;;5053043;28;20389;-88
2023/04/29 12:46:08;;;;;;;0.50;0.50;;;;;;;;;;5052406;28;20025;-86
2023/04/29 12:48:39;;;;;;;1.38;0.77;;;;;;;;;;5060288;28;20260;-85
2023/04/29 12:51:10;;;;;;;2.33;0.93;;;;;;;;;;5056136;28;20056;-83
2023/04/29 12:53:36;;;;;;;0.80;0.80;;;;;;;;;;5062606;28;20369;-85
2023/04/29 12:56:02;;;;;;;0.77;0.52;;;;;;;;;;5047858;28;20081;-84
2023/04/29 12:58:29;;;;;;;1.13;0.75;;;;;;;;;;5053895;28;20055;-84
2023/04/29 13:00:54;;;;;;;1.08;0.82;;;;;;;;;;5053301;28;20068;-85
2023/04/29 13:03:23;;;;;;;3.17;1.00;;;;;;;;;;5042007;28;20424;-83
2023/04/29 13:05:56;;;;;;;1.85;0.98;;;;;;;;;;5055782;28;20532;-84
2023/04/29 13:08:23;;;;;;;1.52;1.00;;;;;;;;;;5048538;28;20119;-82
2023/04/29 13:10:52;;;;;;;0.82;0.60;;;;;;;;;;5052865;28;20074;-83
2023/04/29 13:13:30;;;;;;;0.90;0.70;;;;;;;;;;5054139;28;20074;-84
2023/04/29 13:16:10;;;;;;;1.65;0.75;;;;;;;;;;5049288;28;20029;-83
2023/04/29 13:18:42;;;;;;;;;;;;;;;;;;5054605;28;20037;-85
2023/04/29 13:21:13;;;;;;;2.05;0.93;;;;;;;;;;5053918;28;19920;-85
2023/04/29 13:23:48;;;;;;;1.25;0.65;;;;;;;;;;5053994;28;20021;-84
2023/04/29 13:29:18;;;;;;;0.60;0.60;;;;;;;;;;5052231;28;20044;-84
2023/04/29 13:31:53;;;;;;;1.00;0.90;;;;;;;;;;5050387;28;20034;-83
2023/04/29 13:34:19;;;;;;;1.27;1.13;;;;;;;;;;5059616;28;20089;-84
2023/04/29 13:36:48;;;;;;;0.60;0.60;;;;;;;;;;5049329;28;20029;-85
2023/04/29 13:39:25;;;;;;;0.90;0.80;;;;;;;;;;5055695;28;20052;-83
2023/04/29 13:41:56;;;;;;;1.48;0.70;;;;;;;;;;5051886;28;20024;-84
2023/04/29 13:44:29;;;;;;;1.52;1.27;;;;;;;;;;5056314;28;20509;-84
2023/04/29 13:46:58;;;;;;;1.83;0.85;;;;;;;;;;5055063;28;20113;-83
2023/04/29 13:49:23;;;;;;;1.20;0.80;;;;;;;;;;5059458;28;20098;-85
2023/04/29 13:51:48;;;;;;;2.45;1.08;;;;;;;;;;5058114;28;20052;-84
2023/04/29 13:54:14;;;;;;;1.15;0.85;;;;;;;;;;5053312;28;20545;-84
2023/04/29 13:56:40;;;;;;;1.75;1.10;;;;;;;;;;5056679;28;20464;-84
2023/04/29 13:59:06;;;;;;;1.20;0.88;;;;;;;;;;5052116;28;20045;-85
2023/04/29 14:01:31;;;;;;;1.08;0.70;;;;;;;;;;5058960;28;20055;-84
2023/04/29 14:03:57;;;;;;;0.98;0.52;;;;;;;;;;5053128;28;20086;-83
2023/04/29 14:06:22;;;;;;;0.93;0.65;;;;;;;;;;5062879;28;20574;-84
2023/04/29 14:08:47;;;;;;;0.80;0.60;;;;;;;;;;5064088;28;20032;-84
2023/04/29 14:11:13;;;;;;;0.63;0.52;;;;;;;;;;5053560;28;20596;-85
2023/04/29 14:13:39;;;;;;;1.98;0.95;;;;;;;;;;5054542;28;20024;-85
2023/04/29 14:16:05;;;;;;;1.23;1.02;;;;;;;;;;5053085;28;20499;-84
2023/04/29 14:18:31;;;;;;;1.13;0.82;;;;;;;;;;5057669;28;20078;-84
2023/04/29 14:20:58;;;;;;;1.60;0.90;;;;;;;;;;5051666;28;20013;-85
2023/04/29 14:23:24;;;;;;;3.03;0.90;;;;;;;;;;5057995;28;20036;-84
2023/04/29 14:25:50;;;;;;;1.55;1.00;;;;;;;;;;5055388;28;20020;-83
2023/04/29 14:28:15;;;;;;;1.23;0.73;;;;;;;;;;5065814;28;20040;-86
2023/04/29 14:30:42;;;;;;;1.50;0.82;;;;;;;;;;5061599;28;20115;-85
2023/04/29 14:33:07;;;;;;;2.50;1.10;;;;;;;;;;5063852;28;20025;-83
2023/04/29 14:35:33;;;;;;;3.38;0.98;;;;;;;;;;5063051;28;20020;-89
2023/04/29 14:37:58;;;;;;;1.17;0.88;;;;;;;;;;5060399;28;20100;-87
2023/04/29 14:40:24;;;;;;;2.60;0.90;;;;;;;;;;5063571;28;20483;-86
2023/04/29 14:42:49;;;;;;;2.22;1.10;;;;;;;;;;5062299;28;20079;-89
2023/04/29 14:45:16;;;;;;;1.02;0.93;;;;;;;;;;5066941;28;20033;-87
2023/04/29 14:47:41;;;;;;;1.48;0.95;;;;;;;;;;5049969;28;20574;-85
2023/04/29 14:50:07;;;;;;;1.52;1.02;;;;;;;;;;5048139;28;20054;-88
2023/04/29 14:52:34;;;;;;;1.33;1.00;;;;;;;;;;5050305;28;20030;-84
2023/04/29 14:54:59;;;;;;;2.33;1.60;;;;;;;;;;5048962;28;20025;-86
2023/04/29 14:57:25;;;;;;;2.55;1.65;;;;;;;;;;5059612;28;20036;-86
2023/04/29 14:59:56;;;;;;;1.65;1.23;;;;;;;;;;5062276;28;20488;-88
2023/04/29 15:02:22;;;;;;;2.38;1.23;;;;;;;;;;5054022;28;20025;-86
2023/04/29 15:04:47;;;;;;;2.28;1.38;;;;;;;;;;5060761;28;20075;-86